Time;durP1;ratioP1;P1;durP2;ratioP2;P2;SDS_P1;SDS_P2;PMS_P1;PMS_P2;Temp;Humidity;BMP_temperature;BMP_pressure;BME280_temperature;BME280_humidity;BME280_pressure;Samples;Min_cycle;Max_cycle;Signal;HPM_P1;HPM_P2
2023/02/12 00:01:41;;;;;;;33.23;15.07;;;;;;;;;;4991759;28;20058;-67
2023/02/12 00:04:06;;;;;;;33.33;15.53;;;;;;;;;;4995900;28;20600;-68
2023/02/12 00:06:31;;;;;;;34.05;14.10;;;;;;;;;;4988954;28;20065;-66
2023/02/12 00:08:57;;;;;;;33.78;14.65;;;;;;;;;;4990796;28;20034;-66
2023/02/12 00:11:26;;;;;;;37.13;16.17;;;;;;;;;;4993103;28;20027;-65
2023/02/12 00:13:51;;;;;;;35.00;14.90;;;;;;;;;;4991114;28;20033;-68
2023/02/12 00:16:18;;;;;;;36.05;15.60;;;;;;;;;;4993246;28;20390;-67
2023/02/12 00:18:44;;;;;;;36.33;16.35;;;;;;;;;;4989345;28;20026;-65
2023/02/12 00:21:09;;;;;;;37.20;16.08;;;;;;;;;;4992281;28;20022;-66
2023/02/12 00:23:35;;;;;;;34.70;15.70;;;;;;;;;;4990929;28;20046;-67
2023/02/12 00:26:03;;;;;;;35.28;16.13;;;;;;;;;;4991683;28;20066;-67
2023/02/12 00:28:28;;;;;;;34.22;15.35;;;;;;;;;;4992705;28;20022;-66
2023/02/12 00:30:54;;;;;;;40.58;15.82;;;;;;;;;;4990927;28;20022;-67
2023/02/12 00:33:19;;;;;;;36.22;16.73;;;;;;;;;;4989184;28;20082;-66
2023/02/12 00:35:44;;;;;;;40.88;16.25;;;;;;;;;;4991346;28;20482;-67
2023/02/12 00:38:09;;;;;;;35.20;15.37;;;;;;;;;;4989337;28;20030;-66
2023/02/12 00:40:34;;;;;;;37.77;16.97;;;;;;;;;;4984488;28;20034;-67
2023/02/12 00:42:59;;;;;;;32.92;15.32;;;;;;;;;;4989067;28;20019;-67
2023/02/12 00:45:24;;;;;;;36.55;15.48;;;;;;;;;;4990457;28;20034;-67
2023/02/12 00:47:49;;;;;;;40.90;16.13;;;;;;;;;;4990650;28;20022;-67
2023/02/12 00:50:15;;;;;;;39.28;16.83;;;;;;;;;;4989959;28;20026;-67
2023/02/12 00:52:40;;;;;;;38.73;16.47;;;;;;;;;;4989032;28;20042;-67
2023/02/12 00:55:05;;;;;;;40.10;16.87;;;;;;;;;;4988575;28;20041;-67
2023/02/12 00:57:32;;;;;;;37.43;15.77;;;;;;;;;;4991553;28;20133;-67
2023/02/12 00:59:57;;;;;;;38.92;16.63;;;;;;;;;;4999641;28;20032;-67
2023/02/12 01:02:22;;;;;;;40.63;17.07;;;;;;;;;;4997490;28;20050;-67
2023/02/12 01:04:47;;;;;;;39.55;16.98;;;;;;;;;;4990954;28;20022;-67
2023/02/12 01:07:12;;;;;;;50.00;18.75;;;;;;;;;;4987450;28;20098;-67
2023/02/12 01:09:37;;;;;;;43.45;18.13;;;;;;;;;;4991594;28;20033;-67
2023/02/12 01:12:03;;;;;;;45.17;17.80;;;;;;;;;;4988757;28;20444;-67
2023/02/12 01:14:28;;;;;;;44.92;18.77;;;;;;;;;;4985722;28;20050;-67
2023/02/12 01:16:53;;;;;;;43.15;17.23;;;;;;;;;;4989551;28;20089;-67
2023/02/12 01:19:18;;;;;;;38.38;15.75;;;;;;;;;;4981142;28;20032;-67
2023/02/12 01:21:44;;;;;;;38.83;16.97;;;;;;;;;;4989109;28;20026;-67
2023/02/12 01:24:09;;;;;;;38.63;16.38;;;;;;;;;;4989127;28;20033;-65
2023/02/12 01:26:35;;;;;;;43.35;16.85;;;;;;;;;;4991000;28;20573;-66
2023/02/12 01:29:01;;;;;;;41.50;16.70;;;;;;;;;;4989743;28;20390;-67
2023/02/12 01:31:28;;;;;;;38.72;16.67;;;;;;;;;;4990665;28;20026;-67
2023/02/12 01:33:54;;;;;;;45.30;17.67;;;;;;;;;;4989740;28;20035;-68
2023/02/12 01:36:20;;;;;;;37.60;15.63;;;;;;;;;;4990290;28;20168;-67
2023/02/12 01:38:45;;;;;;;39.85;16.35;;;;;;;;;;4990635;28;20029;-63
2023/02/12 01:41:13;;;;;;;37.35;15.02;;;;;;;;;;4991163;28;20014;-64
2023/02/12 01:43:39;;;;;;;44.60;17.67;;;;;;;;;;4990788;28;20061;-65
2023/02/12 01:46:05;;;;;;;41.78;16.65;;;;;;;;;;4991443;28;20053;-65
2023/02/12 01:48:38;;;;;;;42.25;16.15;;;;;;;;;;4991174;28;20303;-64
2023/02/12 01:51:03;;;;;;;39.97;16.70;;;;;;;;;;4992249;28;20022;-64
2023/02/12 01:53:32;;;;;;;41.53;16.27;;;;;;;;;;4990153;28;20034;-66
2023/02/12 01:55:59;;;;;;;41.35;17.20;;;;;;;;;;4989606;28;20494;-67
2023/02/12 01:58:25;;;;;;;33.92;15.98;;;;;;;;;;4990453;28;20041;-67
2023/02/12 02:00:51;;;;;;;35.55;15.70;;;;;;;;;;4989379;28;20486;-63
2023/02/12 02:03:16;;;;;;;35.58;16.08;;;;;;;;;;4988553;28;20109;-64
2023/02/12 02:05:43;;;;;;;36.50;15.70;;;;;;;;;;4989583;28;20504;-64
2023/02/12 02:08:09;;;;;;;38.55;16.73;;;;;;;;;;4987676;28;20037;-66
2023/02/12 02:10:34;;;;;;;36.85;15.65;;;;;;;;;;4989146;28;20030;-65
2023/02/12 02:15:45;;;;;;;39.15;15.45;;;;;;;;;;4986865;28;20037;-65
2023/02/12 02:18:13;;;;;;;38.30;16.45;;;;;;;;;;4988539;28;20077;-63
2023/02/12 02:21:01;;;;;;;37.45;16.35;;;;;;;;;;4981582;28;20130;-64
2023/02/12 02:23:38;;;;;;;42.28;17.02;;;;;;;;;;4984343;28;20442;-64
2023/02/12 02:26:20;;;;;;;38.17;15.70;;;;;;;;;;4988067;28;20023;-64
2023/02/12 02:28:57;;;;;;;38.58;15.88;;;;;;;;;;4981578;28;20070;-65
2023/02/12 02:31:34;;;;;;;37.92;15.93;;;;;;;;;;4986656;28;20441;-65
2023/02/12 02:34:09;;;;;;;37.38;15.75;;;;;;;;;;4986103;28;20117;-65
2023/02/12 02:36:42;;;;;;;40.53;17.02;;;;;;;;;;4988230;28;20153;-66
2023/02/12 02:39:13;;;;;;;36.90;16.17;;;;;;;;;;4988026;28;20038;-66
2023/02/12 02:41:56;;;;;;;36.88;15.63;;;;;;;;;;4990228;28;20022;-63
2023/02/12 02:44:24;;;;;;;38.70;16.60;;;;;;;;;;4988841;28;20401;-65
2023/02/12 02:46:51;;;;;;;38.67;16.02;;;;;;;;;;4986629;28;20034;-66
2023/02/12 02:49:18;;;;;;;37.92;14.80;;;;;;;;;;4992024;28;20022;-66
2023/02/12 02:51:46;;;;;;;39.53;16.30;;;;;;;;;;4992050;28;20105;-64
2023/02/12 02:54:13;;;;;;;40.35;16.35;;;;;;;;;;4992350;28;20030;-65
2023/02/12 02:56:39;;;;;;;41.33;15.93;;;;;;;;;;4991122;28;20022;-65
2023/02/12 02:59:08;;;;;;;36.90;15.65;;;;;;;;;;4991880;28;20022;-65
2023/02/12 03:01:38;;;;;;;39.20;15.50;;;;;;;;;;4992028;28;20397;-67
2023/02/12 03:04:07;;;;;;;37.70;15.73;;;;;;;;;;4992763;28;20033;-67
2023/02/12 03:06:43;;;;;;;41.97;17.00;;;;;;;;;;4992292;28;20030;-67
2023/02/12 03:09:14;;;;;;;40.60;16.83;;;;;;;;;;4993206;28;20117;-67
2023/02/12 03:11:39;;;;;;;40.80;16.35;;;;;;;;;;4994261;28;20037;-64
2023/02/12 03:14:25;;;;;;;39.73;16.77;;;;;;;;;;4996208;28;20038;-65
2023/02/12 03:16:54;;;;;;;42.40;16.83;;;;;;;;;;4999710;28;20643;-66
2023/02/12 03:19:21;;;;;;;34.63;15.05;;;;;;;;;;4999580;28;20022;-66
2023/02/12 03:21:53;;;;;;;36.13;15.90;;;;;;;;;;4989919;28;20085;-65
2023/02/12 03:24:22;;;;;;;41.92;16.83;;;;;;;;;;4999935;28;20521;-65
2023/02/12 03:26:58;;;;;;;35.40;15.48;;;;;;;;;;5006676;28;20030;-67
2023/02/12 03:29:23;;;;;;;35.60;15.00;;;;;;;;;;4999067;28;20022;-65
2023/02/12 03:32:13;;;;;;;35.33;14.97;;;;;;;;;;4992998;28;20076;-67
2023/02/12 03:34:56;;;;;;;37.97;15.90;;;;;;;;;;4993557;28;20042;-66
2023/02/12 03:37:27;;;;;;;36.47;15.52;;;;;;;;;;4991751;28;20478;-67
2023/02/12 03:40:07;;;;;;;39.05;15.30;;;;;;;;;;4991368;28;20026;-66
2023/02/12 03:42:38;;;;;;;34.25;14.75;;;;;;;;;;4992145;28;20053;-66
2023/02/12 03:45:08;;;;;;;34.08;14.30;;;;;;;;;;4992727;28;20045;-66
2023/02/12 03:47:36;;;;;;;35.28;14.70;;;;;;;;;;4993898;28;20030;-65
2023/02/12 03:50:06;;;;;;;38.83;16.13;;;;;;;;;;4994456;28;20014;-65
2023/02/12 03:52:32;;;;;;;32.88;14.50;;;;;;;;;;4993426;28;20038;-66
2023/02/12 03:54:57;;;;;;;37.30;14.80;;;;;;;;;;4992963;28;20088;-66
2023/02/12 03:57:26;;;;;;;39.93;15.80;;;;;;;;;;4993276;28;20026;-67
2023/02/12 03:59:51;;;;;;;37.38;14.68;;;;;;;;;;4991388;28;20023;-67
2023/02/12 04:02:17;;;;;;;41.00;16.80;;;;;;;;;;4992885;28;20061;-67
2023/02/12 04:04:43;;;;;;;36.83;15.50;;;;;;;;;;4992952;28;20478;-66
2023/02/12 04:07:08;;;;;;;39.75;16.65;;;;;;;;;;4993105;28;20037;-66
2023/02/12 04:09:33;;;;;;;37.95;15.80;;;;;;;;;;4995557;28;20548;-66
2023/02/12 04:12:08;;;;;;;36.63;15.60;;;;;;;;;;4996193;28;20018;-66
2023/02/12 04:15:05;;;;;;;36.60;15.13;;;;;;;;;;4998194;28;20046;-65
2023/02/12 04:17:54;;;;;;;36.28;15.70;;;;;;;;;;5001511;28;20033;-65
2023/02/12 04:20:22;;;;;;;33.10;14.27;;;;;;;;;;4994662;28;20465;-66
2023/02/12 04:23:05;;;;;;;38.70;15.35;;;;;;;;;;4994419;28;20024;-66
2023/02/12 04:25:49;;;;;;;36.30;15.50;;;;;;;;;;4990364;28;20045;-65
2023/02/12 04:28:33;;;;;;;48.28;17.55;;;;;;;;;;4995315;28;20057;-65
2023/02/12 04:31:02;;;;;;;43.85;17.15;;;;;;;;;;4993179;28;20023;-64
2023/02/12 04:33:33;;;;;;;40.40;17.08;;;;;;;;;;4991692;28;20026;-65
2023/02/12 04:36:08;;;;;;;41.10;16.75;;;;;;;;;;4991347;28;20026;-67
2023/02/12 04:38:39;;;;;;;40.08;16.10;;;;;;;;;;4992859;28;20030;-67
2023/02/12 04:41:05;;;;;;;39.17;17.80;;;;;;;;;;4992171;28;20626;-66
2023/02/12 04:43:33;;;;;;;43.38;17.40;;;;;;;;;;4991738;28;20026;-66
2023/02/12 04:45:58;;;;;;;44.05;17.10;;;;;;;;;;4990874;28;20036;-66
2023/02/12 04:48:23;;;;;;;39.13;17.08;;;;;;;;;;4991517;28;20026;-67
2023/02/12 04:50:48;;;;;;;44.28;17.50;;;;;;;;;;4991797;28;20046;-65
2023/02/12 04:53:14;;;;;;;44.40;17.10;;;;;;;;;;4991526;28;20022;-66
2023/02/12 04:55:39;;;;;;;39.33;16.00;;;;;;;;;;4987051;28;20172;-65
2023/02/12 04:58:04;;;;;;;45.35;18.02;;;;;;;;;;4994611;28;20461;-64
2023/02/12 05:00:29;;;;;;;42.97;17.00;;;;;;;;;;4993551;28;20109;-66
2023/02/12 05:02:55;;;;;;;45.47;17.17;;;;;;;;;;4991240;28;20046;-67
2023/02/12 05:05:20;;;;;;;40.33;16.73;;;;;;;;;;4990976;28;20141;-67
2023/02/12 05:07:46;;;;;;;43.65;17.33;;;;;;;;;;4988341;28;20105;-67
2023/02/12 05:10:11;;;;;;;42.70;17.13;;;;;;;;;;4991415;28;20072;-68
2023/02/12 05:12:36;;;;;;;39.90;17.13;;;;;;;;;;4987729;28;20405;-67
2023/02/12 05:15:01;;;;;;;36.05;15.38;;;;;;;;;;4990089;28;20442;-66
2023/02/12 05:17:26;;;;;;;38.67;15.10;;;;;;;;;;4988075;28;20092;-66
2023/02/12 05:19:51;;;;;;;36.03;15.18;;;;;;;;;;4990244;28;20025;-65
2023/02/12 05:22:16;;;;;;;42.30;17.15;;;;;;;;;;4988477;28;20493;-66
2023/02/12 05:24:42;;;;;;;41.27;15.83;;;;;;;;;;4983856;28;20038;-66
2023/02/12 05:27:08;;;;;;;42.70;17.23;;;;;;;;;;4982303;28;20029;-66
2023/02/12 05:29:33;;;;;;;45.78;16.52;;;;;;;;;;4997447;28;20030;-66
2023/02/12 05:31:58;;;;;;;43.53;15.83;;;;;;;;;;4990788;28;20036;-66
2023/02/12 05:34:23;;;;;;;54.10;18.95;;;;;;;;;;4990075;28;20481;-66
2023/02/12 05:36:48;;;;;;;48.05;17.95;;;;;;;;;;4984711;28;20031;-66
2023/02/12 05:39:13;;;;;;;42.87;16.57;;;;;;;;;;4988431;28;20445;-67
2023/02/12 05:41:39;;;;;;;39.20;16.80;;;;;;;;;;4991696;28;20022;-64
2023/02/12 05:44:05;;;;;;;40.42;15.43;;;;;;;;;;4991165;28;20461;-66
2023/02/12 05:46:30;;;;;;;45.15;17.52;;;;;;;;;;4989950;28;20061;-66
2023/02/12 05:48:55;;;;;;;48.72;18.23;;;;;;;;;;4991124;28;20453;-66
2023/02/12 05:51:22;;;;;;;42.28;17.10;;;;;;;;;;4990977;28;20022;-67
2023/02/12 05:53:49;;;;;;;39.83;15.48;;;;;;;;;;4990383;28;20109;-66
2023/02/12 05:56:15;;;;;;;38.35;16.23;;;;;;;;;;4989789;28;20363;-65
2023/02/12 05:58:41;;;;;;;39.45;15.85;;;;;;;;;;4983191;28;20060;-65
2023/02/12 06:01:12;;;;;;;41.17;15.98;;;;;;;;;;4990752;28;20046;-65
2023/02/12 06:03:38;;;;;;;42.22;16.40;;;;;;;;;;4986645;28;20483;-66
2023/02/12 06:06:03;;;;;;;43.97;15.67;;;;;;;;;;4990045;28;20033;-67
2023/02/12 06:08:28;;;;;;;38.75;15.18;;;;;;;;;;4990398;28;20025;-65
2023/02/12 06:10:53;;;;;;;38.40;15.30;;;;;;;;;;4991184;28;20022;-66
2023/02/12 06:13:18;;;;;;;38.10;15.10;;;;;;;;;;4979506;28;20042;-66
2023/02/12 06:15:44;;;;;;;38.55;15.15;;;;;;;;;;4988993;28;20029;-66
2023/02/12 06:18:09;;;;;;;38.37;14.90;;;;;;;;;;4988636;28;20018;-63
2023/02/12 06:20:37;;;;;;;40.50;15.43;;;;;;;;;;4991376;28;20044;-66
2023/02/12 06:23:02;;;;;;;38.90;14.57;;;;;;;;;;4994231;28;20022;-66
2023/02/12 06:25:27;;;;;;;40.63;16.13;;;;;;;;;;4998943;28;20026;-65
2023/02/12 06:27:52;;;;;;;37.07;14.33;;;;;;;;;;4995975;28;20054;-65
2023/02/12 06:30:17;;;;;;;35.25;14.63;;;;;;;;;;4986798;28;20022;-66
2023/02/12 06:32:42;;;;;;;33.13;14.20;;;;;;;;;;4987124;28;20061;-66
2023/02/12 06:35:07;;;;;;;33.78;13.68;;;;;;;;;;4993803;28;20040;-65
2023/02/12 06:37:35;;;;;;;34.03;14.68;;;;;;;;;;4986931;28;20015;-66
2023/02/12 06:40:01;;;;;;;30.95;13.15;;;;;;;;;;4995663;28;20053;-66
2023/02/12 06:42:26;;;;;;;33.58;12.93;;;;;;;;;;4998040;28;20437;-66
2023/02/12 06:44:51;;;;;;;28.85;12.95;;;;;;;;;;4999050;28;20073;-65
2023/02/12 06:47:16;;;;;;;33.58;13.40;;;;;;;;;;4996448;28;20018;-66
2023/02/12 06:49:41;;;;;;;35.40;14.57;;;;;;;;;;4993657;28;20390;-66
2023/02/12 06:52:06;;;;;;;32.33;13.82;;;;;;;;;;4987704;28;20504;-66
2023/02/12 06:54:31;;;;;;;32.53;13.45;;;;;;;;;;4999655;28;20033;-67
2023/02/12 06:56:56;;;;;;;36.08;14.30;;;;;;;;;;4992658;28;20034;-66
2023/02/12 06:59:22;;;;;;;29.27;12.65;;;;;;;;;;4986871;28;20054;-66
2023/02/12 07:01:47;;;;;;;31.97;13.77;;;;;;;;;;4992829;28;20498;-66
2023/02/12 07:04:12;;;;;;;33.77;13.03;;;;;;;;;;4997246;28;20011;-66
2023/02/12 07:06:37;;;;;;;30.10;12.75;;;;;;;;;;4993646;28;20030;-65
2023/02/12 07:09:03;;;;;;;30.60;13.37;;;;;;;;;;4993937;28;20068;-66
2023/02/12 07:11:30;;;;;;;30.67;12.95;;;;;;;;;;4992625;28;20022;-67
2023/02/12 07:13:55;;;;;;;;;;;;;;;;;;4993270;28;20513;-67
2023/02/12 07:16:20;;;;;;;27.77;11.77;;;;;;;;;;4992651;28;19926;-66
2023/02/12 07:18:45;;;;;;;32.23;13.03;;;;;;;;;;4992401;28;20093;-66
2023/02/12 07:21:11;;;;;;;27.73;12.03;;;;;;;;;;4992339;28;20093;-64
2023/02/12 07:23:36;;;;;;;29.88;12.15;;;;;;;;;;4990730;28;20030;-64
2023/02/12 07:26:03;;;;;;;28.25;12.77;;;;;;;;;;4992618;28;20057;-65
2023/02/12 07:28:32;;;;;;;29.20;12.93;;;;;;;;;;4993361;28;20429;-66
2023/02/12 07:30:57;;;;;;;29.75;13.07;;;;;;;;;;4993730;28;20034;-66
2023/02/12 07:33:22;;;;;;;31.30;12.57;;;;;;;;;;4997546;28;20383;-66
2023/02/12 07:35:48;;;;;;;25.80;11.23;;;;;;;;;;4988824;28;20105;-66
2023/02/12 07:38:13;;;;;;;31.38;13.23;;;;;;;;;;4985317;28;20029;-65
2023/02/12 07:40:38;;;;;;;30.63;13.00;;;;;;;;;;4992401;28;20029;-65
2023/02/12 07:43:03;;;;;;;29.48;12.07;;;;;;;;;;4992698;28;20038;-66
2023/02/12 07:45:28;;;;;;;29.27;11.63;;;;;;;;;;4992617;28;20030;-64
2023/02/12 07:47:53;;;;;;;26.77;12.13;;;;;;;;;;4992772;28;20066;-66
2023/02/12 07:50:19;;;;;;;28.63;12.35;;;;;;;;;;4996124;28;20381;-66
2023/02/12 07:52:44;;;;;;;27.40;12.07;;;;;;;;;;4992201;28;20022;-65
2023/02/12 07:55:09;;;;;;;28.17;11.82;;;;;;;;;;4993231;28;20046;-65
2023/02/12 07:57:35;;;;;;;28.77;12.40;;;;;;;;;;4992713;28;20029;-65
2023/02/12 08:00:00;;;;;;;25.90;11.18;;;;;;;;;;4991968;28;20022;-65
2023/02/12 08:02:25;;;;;;;28.98;11.73;;;;;;;;;;4987853;28;20018;-65
2023/02/12 08:04:54;;;;;;;26.33;11.47;;;;;;;;;;4987637;28;20034;-63
2023/02/12 08:07:19;;;;;;;27.10;12.27;;;;;;;;;;4989097;28;20500;-66
2023/02/12 08:09:44;;;;;;;26.70;11.60;;;;;;;;;;4986751;28;20413;-65
2023/02/12 08:12:10;;;;;;;29.23;12.15;;;;;;;;;;4990976;28;20046;-64
2023/02/12 08:14:35;;;;;;;27.05;12.07;;;;;;;;;;4992343;28;20099;-65
2023/02/12 08:17:00;;;;;;;26.70;11.32;;;;;;;;;;4991969;28;20050;-65
2023/02/12 08:19:25;;;;;;;27.67;12.33;;;;;;;;;;4993086;28;20497;-63
2023/02/12 08:21:51;;;;;;;32.65;13.57;;;;;;;;;;4990268;28;20023;-67
2023/02/12 08:24:16;;;;;;;34.95;15.30;;;;;;;;;;4991574;28;20505;-67
2023/02/12 08:26:41;;;;;;;33.27;15.20;;;;;;;;;;4991516;28;20053;-66
2023/02/12 08:29:09;;;;;;;33.43;13.90;;;;;;;;;;4991077;28;20019;-66
2023/02/12 08:31:36;;;;;;;39.20;15.43;;;;;;;;;;4993032;28;20022;-65
2023/02/12 08:34:02;;;;;;;33.53;14.85;;;;;;;;;;4991105;28;20496;-65
2023/02/12 08:36:28;;;;;;;33.58;14.52;;;;;;;;;;4989380;28;20022;-66
2023/02/12 08:38:56;;;;;;;33.38;14.98;;;;;;;;;;4980966;28;20137;-65
2023/02/12 08:41:22;;;;;;;38.78;15.48;;;;;;;;;;4988583;28;20092;-66
2023/02/12 08:43:51;;;;;;;29.27;12.40;;;;;;;;;;4991123;28;20026;-65
2023/02/12 08:46:19;;;;;;;29.17;13.55;;;;;;;;;;4987394;28;20425;-66
2023/02/12 08:48:44;;;;;;;29.05;13.20;;;;;;;;;;4992285;28;20379;-66
2023/02/12 08:51:11;;;;;;;31.23;13.33;;;;;;;;;;5012123;28;20105;-66
2023/02/12 08:53:37;;;;;;;29.48;12.88;;;;;;;;;;5011538;28;20029;-66
2023/02/12 08:56:02;;;;;;;32.85;13.13;;;;;;;;;;5011865;28;20033;-66
2023/02/12 08:58:28;;;;;;;31.63;13.77;;;;;;;;;;5003177;28;20442;-64
2023/02/12 09:00:53;;;;;;;30.02;13.05;;;;;;;;;;4997317;28;20018;-67
2023/02/12 09:03:18;;;;;;;25.23;11.17;;;;;;;;;;5006136;28;20030;-66
2023/02/12 09:05:43;;;;;;;31.63;13.77;;;;;;;;;;5015309;28;20425;-67
2023/02/12 09:08:08;;;;;;;31.10;13.40;;;;;;;;;;5014833;28;20029;-67
2023/02/12 09:10:37;;;;;;;30.50;12.70;;;;;;;;;;5005437;28;20097;-67
2023/02/12 09:13:03;;;;;;;30.83;12.75;;;;;;;;;;4972083;28;20482;-66
2023/02/12 09:15:28;;;;;;;26.13;11.70;;;;;;;;;;4972883;28;20114;-67
2023/02/12 09:17:53;;;;;;;27.90;12.05;;;;;;;;;;4976759;28;20041;-66
2023/02/12 09:20:18;;;;;;;25.90;11.60;;;;;;;;;;5000125;28;20482;-66
2023/02/12 09:22:43;;;;;;;26.38;11.32;;;;;;;;;;5002360;28;20064;-65
2023/02/12 09:25:09;;;;;;;24.30;11.45;;;;;;;;;;4996587;28;20108;-66
2023/02/12 09:27:34;;;;;;;23.77;11.40;;;;;;;;;;4992385;28;20053;-67
2023/02/12 09:29:59;;;;;;;24.95;11.20;;;;;;;;;;4994549;28;20580;-67
2023/02/12 09:32:24;;;;;;;24.88;11.10;;;;;;;;;;4995490;28;20034;-67
2023/02/12 09:34:49;;;;;;;24.77;10.98;;;;;;;;;;5010303;28;20017;-67
2023/02/12 09:37:14;;;;;;;25.42;10.77;;;;;;;;;;4998369;28;20406;-65
2023/02/12 09:39:40;;;;;;;22.17;11.23;;;;;;;;;;5000211;28;20455;-67
2023/02/12 09:42:14;;;;;;;24.47;11.13;;;;;;;;;;4996405;28;20482;-68
2023/02/12 09:44:49;;;;;;;20.17;9.20;;;;;;;;;;4988765;28;20232;-66
2023/02/12 09:47:34;;;;;;;23.15;10.65;;;;;;;;;;4978704;28;20039;-66
2023/02/12 09:50:13;;;;;;;20.58;9.38;;;;;;;;;;5002807;28;20032;-66
2023/02/12 09:52:38;;;;;;;21.85;9.27;;;;;;;;;;5017997;28;20057;-67
2023/02/12 09:55:04;;;;;;;23.00;10.43;;;;;;;;;;5011017;28;20030;-68
2023/02/12 09:57:34;;;;;;;22.05;9.90;;;;;;;;;;5010612;28;20042;-67
2023/02/12 10:00:03;;;;;;;20.92;9.50;;;;;;;;;;5011888;28;20097;-66
2023/02/12 10:02:28;;;;;;;20.80;9.20;;;;;;;;;;5007870;28;20030;-67
2023/02/12 10:04:54;;;;;;;21.27;8.30;;;;;;;;;;5002729;28;20072;-67
2023/02/12 10:07:48;;;;;;;20.17;8.70;;;;;;;;;;5011165;28;20026;-66
2023/02/12 10:10:22;;;;;;;17.40;7.57;;;;;;;;;;5023247;28;20030;-67
2023/02/12 10:12:57;;;;;;;18.05;7.32;;;;;;;;;;5010403;28;20033;-66
2023/02/12 10:15:30;;;;;;;15.05;7.35;;;;;;;;;;5011058;28;20029;-65
2023/02/12 10:18:04;;;;;;;16.48;6.70;;;;;;;;;;5001283;28;20113;-67
2023/02/12 10:20:42;;;;;;;17.88;8.35;;;;;;;;;;4995653;28;20040;-67
2023/02/12 10:23:26;;;;;;;17.08;7.60;;;;;;;;;;4989791;28;20496;-67
2023/02/12 10:25:53;;;;;;;18.88;7.07;;;;;;;;;;4991077;28;20038;-66
2023/02/12 10:28:22;;;;;;;15.98;6.60;;;;;;;;;;4973518;28;20518;-66
2023/02/12 10:30:50;;;;;;;15.57;6.75;;;;;;;;;;4971719;28;20110;-67
2023/02/12 10:33:17;;;;;;;19.95;6.22;;;;;;;;;;4971211;28;20035;-65
2023/02/12 10:35:45;;;;;;;16.08;6.57;;;;;;;;;;4988265;28;20052;-67
2023/02/12 10:38:17;;;;;;;15.80;6.13;;;;;;;;;;4997107;28;20022;-65
2023/02/12 10:40:43;;;;;;;16.30;6.30;;;;;;;;;;4999248;28;20304;-66
2023/02/12 10:43:09;;;;;;;14.60;5.85;;;;;;;;;;5004604;28;20045;-67
2023/02/12 10:45:36;;;;;;;16.02;5.78;;;;;;;;;;4990855;28;20026;-67
2023/02/12 10:48:04;;;;;;;17.35;6.65;;;;;;;;;;5004197;28;20033;-67
2023/02/12 10:50:50;;;;;;;15.90;5.95;;;;;;;;;;4978751;28;20490;-65
2023/02/12 10:53:23;;;;;;;14.30;5.35;;;;;;;;;;4988783;28;20399;-66
2023/02/12 10:55:49;;;;;;;15.02;5.07;;;;;;;;;;4996217;28;20026;-67
2023/02/12 10:58:18;;;;;;;15.40;5.13;;;;;;;;;;5005546;28;20381;-66
2023/02/12 11:00:43;;;;;;;12.93;4.88;;;;;;;;;;5011162;28;20014;-66
2023/02/12 11:03:11;;;;;;;17.30;4.93;;;;;;;;;;5011218;28;20083;-66
2023/02/12 11:05:38;;;;;;;12.90;4.75;;;;;;;;;;5009067;28;20118;-68
2023/02/12 11:08:04;;;;;;;14.65;5.00;;;;;;;;;;4990917;28;20031;-66
2023/02/12 11:10:31;;;;;;;16.10;5.28;;;;;;;;;;5002289;28;20022;-67
2023/02/12 11:12:57;;;;;;;14.27;4.95;;;;;;;;;;5009295;28;20026;-65
2023/02/12 11:15:24;;;;;;;13.48;4.88;;;;;;;;;;5002129;28;20489;-66
2023/02/12 11:17:49;;;;;;;;;;;;;;;;;;5012610;28;20028;-65
2023/02/12 11:20:17;;;;;;;16.70;4.65;;;;;;;;;;5011869;28;19905;-66
2023/02/12 11:22:53;;;;;;;15.32;4.50;;;;;;;;;;4988640;28;20026;-66
2023/02/12 11:25:19;;;;;;;12.82;4.68;;;;;;;;;;4993834;28;20382;-65
2023/02/12 11:27:44;;;;;;;12.93;4.35;;;;;;;;;;4998735;28;20042;-67
2023/02/12 11:30:09;;;;;;;13.47;4.47;;;;;;;;;;5002159;28;20018;-68
2023/02/12 11:32:35;;;;;;;16.67;4.93;;;;;;;;;;5004158;28;20041;-66
2023/02/12 11:35:05;;;;;;;18.40;4.53;;;;;;;;;;5003320;28;20053;-66
2023/02/12 11:37:31;;;;;;;16.17;4.43;;;;;;;;;;4995891;28;20101;-66
2023/02/12 11:39:57;;;;;;;19.10;4.93;;;;;;;;;;4991573;28;20034;-66
2023/02/12 11:42:24;;;;;;;13.45;4.40;;;;;;;;;;4991624;28;20035;-66
2023/02/12 11:44:49;;;;;;;;;;;;;;;;;;4992413;28;20169;-66
2023/02/12 11:47:21;;;;;;;15.55;3.88;;;;;;;;;;4992698;28;19997;-67
2023/02/12 11:49:52;;;;;;;15.90;4.30;;;;;;;;;;4990649;28;20042;-67
2023/02/12 11:52:37;;;;;;;12.75;4.03;;;;;;;;;;4991814;28;20018;-66
2023/02/12 11:55:15;;;;;;;11.88;3.20;;;;;;;;;;4990785;28;20041;-65
2023/02/12 11:57:46;;;;;;;11.95;2.92;;;;;;;;;;4986710;28;20026;-66
2023/02/12 12:00:14;;;;;;;13.43;3.40;;;;;;;;;;4988036;28;20030;-66
2023/02/12 12:02:44;;;;;;;10.93;3.05;;;;;;;;;;4988606;28;20109;-67
2023/02/12 12:05:17;;;;;;;13.07;3.45;;;;;;;;;;4992136;28;20125;-65
2023/02/12 12:07:45;;;;;;;9.40;3.40;;;;;;;;;;4992026;28;20030;-66
2023/02/12 12:10:24;;;;;;;14.70;3.70;;;;;;;;;;4991187;28;20113;-66
2023/02/12 12:12:55;;;;;;;11.55;3.63;;;;;;;;;;4989981;28;20101;-66
2023/02/12 12:21:08;;;;;;;11.30;3.30;;;;;;;;;;5001698;28;20081;-64
2023/02/12 12:23:41;;;;;;;14.23;3.22;;;;;;;;;;4992046;28;20030;-67
2023/02/12 12:26:09;;;;;;;11.75;3.17;;;;;;;;;;4989775;28;20026;-67
2023/02/12 12:28:44;;;;;;;14.82;3.80;;;;;;;;;;4989361;28;20053;-67
2023/02/12 12:31:13;;;;;;;14.88;3.25;;;;;;;;;;4983198;28;20101;-66
2023/02/12 12:33:59;;;;;;;14.52;3.58;;;;;;;;;;4988053;28;20036;-66
2023/02/12 12:36:43;;;;;;;14.05;3.38;;;;;;;;;;4986397;28;20010;-66
2023/02/12 12:39:20;;;;;;;14.98;3.55;;;;;;;;;;4991139;28;20025;-67
2023/02/12 12:42:03;;;;;;;12.73;3.95;;;;;;;;;;4991441;28;20433;-66
2023/02/12 12:44:45;;;;;;;13.75;3.50;;;;;;;;;;4990570;28;20436;-65
2023/02/12 12:47:20;;;;;;;12.40;3.60;;;;;;;;;;4990597;28;20054;-65
2023/02/12 12:49:45;;;;;;;11.43;3.33;;;;;;;;;;4990271;28;20018;-65
2023/02/12 12:52:20;;;;;;;15.48;4.03;;;;;;;;;;4993816;28;20501;-64
2023/02/12 12:55:00;;;;;;;14.60;4.30;;;;;;;;;;4991174;28;20165;-65
2023/02/12 12:57:41;;;;;;;12.23;3.60;;;;;;;;;;4986459;28;20506;-65
2023/02/12 13:00:11;;;;;;;16.15;3.38;;;;;;;;;;4987601;28;20084;-65
2023/02/12 13:02:37;;;;;;;13.52;3.63;;;;;;;;;;4982436;28;20347;-63
2023/02/12 13:05:02;;;;;;;19.15;3.78;;;;;;;;;;4981998;28;20508;-66
2023/02/12 13:07:41;;;;;;;13.75;3.50;;;;;;;;;;4987517;28;20737;-65
2023/02/12 13:10:24;;;;;;;9.60;2.97;;;;;;;;;;4987164;28;20061;-65
2023/02/12 13:12:55;;;;;;;15.23;3.78;;;;;;;;;;4987149;28;20104;-66
2023/02/12 13:15:25;;;;;;;14.65;3.95;;;;;;;;;;4987276;28;20021;-66
2023/02/12 13:18:11;;;;;;;9.85;3.00;;;;;;;;;;4987943;28;20021;-65
2023/02/12 13:20:36;;;;;;;12.57;3.50;;;;;;;;;;4985280;28;20089;-66
2023/02/12 13:23:13;;;;;;;14.13;3.65;;;;;;;;;;4990404;28;20034;-66
2023/02/12 13:25:53;;;;;;;16.48;4.10;;;;;;;;;;4983800;28;20042;-66
2023/02/12 13:28:30;;;;;;;16.13;3.90;;;;;;;;;;4986157;28;20022;-67
2023/02/12 13:30:56;;;;;;;13.80;4.30;;;;;;;;;;4985522;28;20533;-67
2023/02/12 13:33:21;;;;;;;14.63;3.50;;;;;;;;;;4985125;28;20120;-66
2023/02/12 13:35:48;;;;;;;17.57;4.63;;;;;;;;;;4995015;28;20046;-64
2023/02/12 13:38:17;;;;;;;15.93;4.68;;;;;;;;;;4987309;28;20057;-66
2023/02/12 13:40:42;;;;;;;13.60;3.40;;;;;;;;;;4987761;28;20033;-66
2023/02/12 13:43:21;;;;;;;11.00;2.90;;;;;;;;;;4988133;28;20022;-65
2023/02/12 13:46:02;;;;;;;10.25;2.90;;;;;;;;;;4989042;28;20122;-66
2023/02/12 13:48:39;;;;;;;12.32;3.22;;;;;;;;;;4991569;28;20030;-66
2023/02/12 13:51:04;;;;;;;11.55;2.92;;;;;;;;;;4989601;28;20159;-67
2023/02/12 13:53:44;;;;;;;9.83;2.90;;;;;;;;;;4993868;28;20080;-66
2023/02/12 13:56:28;;;;;;;9.15;3.35;;;;;;;;;;4999663;28;20833;-67
2023/02/12 13:58:55;;;;;;;;;;;;;;;;;;4982705;28;20014;-66
2023/02/12 14:01:34;;;;;;;8.13;2.88;;;;;;;;;;4983085;28;19989;-67
2023/02/12 14:04:18;;;;;;;11.40;3.15;;;;;;;;;;4985906;28;20052;-66
2023/02/12 14:06:52;;;;;;;10.57;3.20;;;;;;;;;;4987729;28;20034;-67
2023/02/12 14:09:19;;;;;;;11.18;3.20;;;;;;;;;;4982039;28;20030;-66
2023/02/12 14:11:47;;;;;;;9.18;3.03;;;;;;;;;;4986292;28;20100;-66
2023/02/12 14:14:12;;;;;;;9.93;3.45;;;;;;;;;;4989060;28;20031;-66
2023/02/12 14:16:38;;;;;;;9.77;2.70;;;;;;;;;;4991212;28;20113;-66
2023/02/12 14:19:22;;;;;;;10.02;3.25;;;;;;;;;;4985771;28;20105;-67
2023/02/12 14:21:47;;;;;;;8.32;2.90;;;;;;;;;;4979706;28;20397;-66
2023/02/12 14:24:31;;;;;;;11.13;3.72;;;;;;;;;;4988868;28;20113;-66
2023/02/12 14:26:56;;;;;;;8.88;3.13;;;;;;;;;;4990840;28;20046;-65
2023/02/12 14:29:23;;;;;;;10.13;3.30;;;;;;;;;;4988423;28;20404;-67
2023/02/12 14:31:48;;;;;;;;;;;;;;;;;;4986322;28;20030;-66
2023/02/12 14:34:15;;;;;;;9.30;2.97;;;;;;;;;;4990839;28;19940;-66
2023/02/12 14:36:42;;;;;;;8.65;3.00;;;;;;;;;;4989740;28;20022;-67
2023/02/12 14:39:28;;;;;;;9.57;3.30;;;;;;;;;;4989722;28;20027;-66
2023/02/12 14:41:54;;;;;;;8.98;2.90;;;;;;;;;;4989072;28;20038;-66